sensor_id;sensor_type;location;lat;lon;timestamp;P1;durP1;ratioP1;P2;durP2;ratioP2
21905;SDS011;11117;48.644;9.006;2024-02-23T00:01:50;0.10;;;0.10;;
21905;SDS011;11117;48.644;9.006;2024-02-23T00:04:16;0.20;;;0.10;;
21905;SDS011;11117;48.644;9.006;2024-02-23T00:06:42;3.90;;;0.30;;
21905;SDS011;11117;48.644;9.006;2024-02-23T00:09:07;0.27;;;0.10;;
21905;SDS011;11117;48.644;9.006;2024-02-23T00:11:33;2.20;;;0.20;;
21905;SDS011;11117;48.644;9.006;2024-02-23T00:13:59;0.10;;;0.10;;
21905;SDS011;11117;48.644;9.006;2024-02-23T00:16:25;1.30;;;0.10;;
21905;SDS011;11117;48.644;9.006;2024-02-23T00:18:50;0.63;;;0.20;;
21905;SDS011;11117;48.644;9.006;2024-02-23T00:21:16;2.10;;;0.20;;
21905;SDS011;11117;48.644;9.006;2024-02-23T00:23:41;2.70;;;0.63;;
21905;SDS011;11117;48.644;9.006;2024-02-23T00:26:07;1.77;;;0.47;;
21905;SDS011;11117;48.644;9.006;2024-02-23T00:28:32;2.00;;;0.30;;
21905;SDS011;11117;48.644;9.006;2024-02-23T00:30:58;2.43;;;0.50;;
21905;SDS011;11117;48.644;9.006;2024-02-23T00:33:23;2.37;;;0.40;;
21905;SDS011;11117;48.644;9.006;2024-02-23T00:35:49;2.60;;;0.30;;
21905;SDS011;11117;48.644;9.006;2024-02-23T00:38:14;1.57;;;0.30;;
21905;SDS011;11117;48.644;9.006;2024-02-23T00:40:40;3.43;;;0.43;;
21905;SDS011;11117;48.644;9.006;2024-02-23T00:43:06;1.50;;;0.30;;
21905;SDS011;11117;48.644;9.006;2024-02-23T00:45:31;2.17;;;0.40;;
21905;SDS011;11117;48.644;9.006;2024-02-23T00:47:57;1.50;;;0.50;;
21905;SDS011;11117;48.644;9.006;2024-02-23T00:50:22;1.77;;;0.40;;
21905;SDS011;11117;48.644;9.006;2024-02-23T00:52:53;6.13;;;0.47;;
21905;SDS011;11117;48.644;9.006;2024-02-23T00:55:19;0.60;;;0.40;;
21905;SDS011;11117;48.644;9.006;2024-02-23T00:57:44;2.33;;;0.30;;
21905;SDS011;11117;48.644;9.006;2024-02-23T01:00:10;4.27;;;0.40;;
21905;SDS011;11117;48.644;9.006;2024-02-23T01:02:36;2.53;;;0.40;;
21905;SDS011;11117;48.644;9.006;2024-02-23T01:05:05;3.07;;;0.50;;
21905;SDS011;11117;48.644;9.006;2024-02-23T01:07:31;2.73;;;0.57;;
21905;SDS011;11117;48.644;9.006;2024-02-23T01:09:56;1.53;;;0.40;;
21905;SDS011;11117;48.644;9.006;2024-02-23T01:12:22;4.73;;;0.60;;
21905;SDS011;11117;48.644;9.006;2024-02-23T01:14:48;7.10;;;1.00;;
21905;SDS011;11117;48.644;9.006;2024-02-23T01:17:13;3.23;;;0.80;;
21905;SDS011;11117;48.644;9.006;2024-02-23T01:19:40;6.20;;;0.50;;
21905;SDS011;11117;48.644;9.006;2024-02-23T01:22:06;3.00;;;0.57;;
21905;SDS011;11117;48.644;9.006;2024-02-23T01:24:31;4.07;;;0.50;;
21905;SDS011;11117;48.644;9.006;2024-02-23T01:26:57;3.93;;;0.73;;
21905;SDS011;11117;48.644;9.006;2024-02-23T01:29:23;3.00;;;0.40;;
21905;SDS011;11117;48.644;9.006;2024-02-23T01:31:50;1.73;;;0.33;;
21905;SDS011;11117;48.644;9.006;2024-02-23T01:34:15;3.77;;;0.70;;
21905;SDS011;11117;48.644;9.006;2024-02-23T01:36:41;3.57;;;0.40;;
21905;SDS011;11117;48.644;9.006;2024-02-23T01:39:06;2.33;;;0.70;;
21905;SDS011;11117;48.644;9.006;2024-02-23T01:41:32;6.10;;;0.90;;
21905;SDS011;11117;48.644;9.006;2024-02-23T01:43:58;2.73;;;0.50;;
21905;SDS011;11117;48.644;9.006;2024-02-23T01:46:23;3.17;;;0.50;;
21905;SDS011;11117;48.644;9.006;2024-02-23T01:48:49;5.67;;;0.80;;
21905;SDS011;11117;48.644;9.006;2024-02-23T01:51:15;5.80;;;0.60;;
21905;SDS011;11117;48.644;9.006;2024-02-23T01:53:41;1.90;;;0.60;;
21905;SDS011;11117;48.644;9.006;2024-02-23T01:56:07;3.40;;;0.60;;
21905;SDS011;11117;48.644;9.006;2024-02-23T01:58:34;6.17;;;0.87;;
21905;SDS011;11117;48.644;9.006;2024-02-23T02:01:01;2.63;;;0.60;;
21905;SDS011;11117;48.644;9.006;2024-02-23T02:03:27;2.67;;;0.43;;
21905;SDS011;11117;48.644;9.006;2024-02-23T02:05:53;3.07;;;0.70;;
21905;SDS011;11117;48.644;9.006;2024-02-23T02:08:19;6.03;;;0.60;;
21905;SDS011;11117;48.644;9.006;2024-02-23T02:10:45;7.13;;;0.63;;
21905;SDS011;11117;48.644;9.006;2024-02-23T02:13:11;4.93;;;0.63;;
21905;SDS011;11117;48.644;9.006;2024-02-23T02:15:36;2.10;;;0.57;;
21905;SDS011;11117;48.644;9.006;2024-02-23T02:18:02;5.97;;;0.53;;
21905;SDS011;11117;48.644;9.006;2024-02-23T02:20:28;1.43;;;0.50;;
21905;SDS011;11117;48.644;9.006;2024-02-23T02:22:57;2.47;;;0.60;;
21905;SDS011;11117;48.644;9.006;2024-02-23T02:25:23;1.37;;;0.50;;
21905;SDS011;11117;48.644;9.006;2024-02-23T02:27:52;5.03;;;0.93;;
21905;SDS011;11117;48.644;9.006;2024-02-23T02:30:17;4.40;;;0.70;;
21905;SDS011;11117;48.644;9.006;2024-02-23T02:32:43;1.20;;;0.40;;
21905;SDS011;11117;48.644;9.006;2024-02-23T02:35:10;3.13;;;0.50;;
21905;SDS011;11117;48.644;9.006;2024-02-23T02:37:36;2.80;;;0.53;;
21905;SDS011;11117;48.644;9.006;2024-02-23T02:40:02;3.30;;;0.40;;
21905;SDS011;11117;48.644;9.006;2024-02-23T02:42:27;2.43;;;0.27;;
21905;SDS011;11117;48.644;9.006;2024-02-23T02:44:53;2.37;;;0.30;;
21905;SDS011;11117;48.644;9.006;2024-02-23T02:47:19;4.87;;;0.40;;
21905;SDS011;11117;48.644;9.006;2024-02-23T02:49:44;1.77;;;0.30;;
21905;SDS011;11117;48.644;9.006;2024-02-23T02:52:10;2.17;;;0.50;;
21905;SDS011;11117;48.644;9.006;2024-02-23T02:54:35;0.47;;;0.30;;
21905;SDS011;11117;48.644;9.006;2024-02-23T02:57:01;1.70;;;0.40;;
21905;SDS011;11117;48.644;9.006;2024-02-23T02:59:26;6.87;;;0.70;;
21905;SDS011;11117;48.644;9.006;2024-02-23T03:01:52;1.67;;;0.43;;
21905;SDS011;11117;48.644;9.006;2024-02-23T03:04:17;1.57;;;0.33;;
21905;SDS011;11117;48.644;9.006;2024-02-23T03:06:43;4.00;;;0.60;;
21905;SDS011;11117;48.644;9.006;2024-02-23T03:09:08;5.37;;;0.43;;
21905;SDS011;11117;48.644;9.006;2024-02-23T03:11:35;2.10;;;0.50;;
21905;SDS011;11117;48.644;9.006;2024-02-23T03:14:01;1.83;;;0.40;;
21905;SDS011;11117;48.644;9.006;2024-02-23T03:16:27;1.80;;;0.50;;
21905;SDS011;11117;48.644;9.006;2024-02-23T03:18:52;3.27;;;0.43;;
21905;SDS011;11117;48.644;9.006;2024-02-23T03:21:18;1.77;;;0.40;;
21905;SDS011;11117;48.644;9.006;2024-02-23T03:23:43;4.10;;;0.40;;
21905;SDS011;11117;48.644;9.006;2024-02-23T03:26:09;2.87;;;0.60;;
21905;SDS011;11117;48.644;9.006;2024-02-23T03:28:34;3.53;;;0.70;;
21905;SDS011;11117;48.644;9.006;2024-02-23T03:31:00;2.30;;;0.60;;
21905;SDS011;11117;48.644;9.006;2024-02-23T03:33:25;1.27;;;0.30;;
21905;SDS011;11117;48.644;9.006;2024-02-23T03:35:51;1.83;;;0.50;;
21905;SDS011;11117;48.644;9.006;2024-02-23T03:38:16;5.43;;;1.10;;
21905;SDS011;11117;48.644;9.006;2024-02-23T03:40:42;2.13;;;0.40;;
21905;SDS011;11117;48.644;9.006;2024-02-23T03:43:08;2.13;;;0.40;;
21905;SDS011;11117;48.644;9.006;2024-02-23T03:45:33;4.17;;;0.60;;
21905;SDS011;11117;48.644;9.006;2024-02-23T03:47:59;8.33;;;1.13;;
21905;SDS011;11117;48.644;9.006;2024-02-23T03:50:25;8.33;;;0.60;;
21905;SDS011;11117;48.644;9.006;2024-02-23T03:52:52;2.87;;;0.50;;
21905;SDS011;11117;48.644;9.006;2024-02-23T03:55:18;2.20;;;0.60;;
21905;SDS011;11117;48.644;9.006;2024-02-23T03:57:43;3.30;;;0.63;;
21905;SDS011;11117;48.644;9.006;2024-02-23T04:00:09;2.30;;;0.40;;
21905;SDS011;11117;48.644;9.006;2024-02-23T04:02:35;1.63;;;0.50;;
21905;SDS011;11117;48.644;9.006;2024-02-23T04:05:00;1.03;;;0.40;;
21905;SDS011;11117;48.644;9.006;2024-02-23T04:07:26;2.63;;;0.63;;
21905;SDS011;11117;48.644;9.006;2024-02-23T04:09:51;2.70;;;0.80;;
21905;SDS011;11117;48.644;9.006;2024-02-23T04:12:20;0.80;;;0.57;;
21905;SDS011;11117;48.644;9.006;2024-02-23T04:14:46;1.37;;;0.50;;
21905;SDS011;11117;48.644;9.006;2024-02-23T04:17:12;2.40;;;0.60;;
21905;SDS011;11117;48.644;9.006;2024-02-23T04:19:38;3.07;;;0.53;;
21905;SDS011;11117;48.644;9.006;2024-02-23T04:22:05;2.20;;;0.50;;
21905;SDS011;11117;48.644;9.006;2024-02-23T04:24:31;3.73;;;0.50;;
21905;SDS011;11117;48.644;9.006;2024-02-23T04:26:56;2.30;;;0.40;;
21905;SDS011;11117;48.644;9.006;2024-02-23T04:29:22;4.77;;;0.60;;
21905;SDS011;11117;48.644;9.006;2024-02-23T04:31:48;3.17;;;0.43;;
21905;SDS011;11117;48.644;9.006;2024-02-23T04:34:14;4.60;;;0.60;;
21905;SDS011;11117;48.644;9.006;2024-02-23T04:36:40;2.13;;;0.70;;
21905;SDS011;11117;48.644;9.006;2024-02-23T04:39:06;3.70;;;0.70;;
21905;SDS011;11117;48.644;9.006;2024-02-23T04:41:31;2.60;;;0.60;;
21905;SDS011;11117;48.644;9.006;2024-02-23T04:43:57;2.00;;;0.70;;
21905;SDS011;11117;48.644;9.006;2024-02-23T04:46:22;2.50;;;0.60;;
21905;SDS011;11117;48.644;9.006;2024-02-23T04:48:48;2.20;;;0.73;;
21905;SDS011;11117;48.644;9.006;2024-02-23T04:51:13;5.83;;;2.77;;
21905;SDS011;11117;48.644;9.006;2024-02-23T04:53:39;2.90;;;1.50;;
21905;SDS011;11117;48.644;9.006;2024-02-23T04:56:05;5.33;;;1.70;;
21905;SDS011;11117;48.644;9.006;2024-02-23T04:58:32;3.07;;;2.70;;
21905;SDS011;11117;48.644;9.006;2024-02-23T05:00:57;8.67;;;4.13;;
21905;SDS011;11117;48.644;9.006;2024-02-23T05:03:23;8.50;;;4.97;;
21905;SDS011;11117;48.644;9.006;2024-02-23T05:05:48;6.83;;;5.47;;
21905;SDS011;11117;48.644;9.006;2024-02-23T05:08:14;9.90;;;5.73;;
21905;SDS011;11117;48.644;9.006;2024-02-23T05:10:39;5.50;;;3.70;;
21905;SDS011;11117;48.644;9.006;2024-02-23T05:13:05;6.60;;;2.03;;
21905;SDS011;11117;48.644;9.006;2024-02-23T05:15:30;1.13;;;0.80;;
21905;SDS011;11117;48.644;9.006;2024-02-23T05:17:56;4.90;;;0.70;;
21905;SDS011;11117;48.644;9.006;2024-02-23T05:20:21;3.07;;;0.60;;
21905;SDS011;11117;48.644;9.006;2024-02-23T05:22:51;1.50;;;0.50;;
21905;SDS011;11117;48.644;9.006;2024-02-23T05:25:17;4.20;;;0.70;;
21905;SDS011;11117;48.644;9.006;2024-02-23T05:27:42;1.90;;;0.53;;
21905;SDS011;11117;48.644;9.006;2024-02-23T05:30:08;5.40;;;1.00;;
21905;SDS011;11117;48.644;9.006;2024-02-23T05:32:34;2.90;;;0.90;;
21905;SDS011;11117;48.644;9.006;2024-02-23T05:35:00;7.03;;;1.10;;
21905;SDS011;11117;48.644;9.006;2024-02-23T05:37:25;2.00;;;0.90;;
21905;SDS011;11117;48.644;9.006;2024-02-23T05:39:51;2.47;;;1.20;;
21905;SDS011;11117;48.644;9.006;2024-02-23T05:42:16;3.97;;;1.27;;
21905;SDS011;11117;48.644;9.006;2024-02-23T05:44:45;2.40;;;1.30;;
21905;SDS011;11117;48.644;9.006;2024-02-23T05:47:11;3.33;;;1.00;;
21905;SDS011;11117;48.644;9.006;2024-02-23T05:49:37;4.07;;;0.97;;
21905;SDS011;11117;48.644;9.006;2024-02-23T05:52:02;3.60;;;0.70;;
21905;SDS011;11117;48.644;9.006;2024-02-23T05:54:28;4.05;;;0.90;;
21905;SDS011;11117;48.644;9.006;2024-02-23T05:56:53;3.73;;;0.70;;
21905;SDS011;11117;48.644;9.006;2024-02-23T05:59:19;5.53;;;0.70;;
21905;SDS011;11117;48.644;9.006;2024-02-23T06:01:45;3.83;;;0.73;;
21905;SDS011;11117;48.644;9.006;2024-02-23T06:04:10;3.87;;;0.80;;
21905;SDS011;11117;48.644;9.006;2024-02-23T06:06:36;3.40;;;0.93;;
21905;SDS011;11117;48.644;9.006;2024-02-23T06:09:01;2.63;;;0.67;;
21905;SDS011;11117;48.644;9.006;2024-02-23T06:11:27;3.43;;;0.80;;
21905;SDS011;11117;48.644;9.006;2024-02-23T06:13:52;5.33;;;1.20;;
21905;SDS011;11117;48.644;9.006;2024-02-23T06:16:18;3.77;;;1.17;;
21905;SDS011;11117;48.644;9.006;2024-02-23T06:18:43;4.47;;;1.10;;
21905;SDS011;11117;48.644;9.006;2024-02-23T06:21:15;7.20;;;1.50;;
21905;SDS011;11117;48.644;9.006;2024-02-23T06:23:42;3.43;;;1.10;;
21905;SDS011;11117;48.644;9.006;2024-02-23T06:26:08;2.67;;;0.80;;
21905;SDS011;11117;48.644;9.006;2024-02-23T06:28:33;4.00;;;1.10;;
21905;SDS011;11117;48.644;9.006;2024-02-23T06:30:59;3.00;;;1.00;;
21905;SDS011;11117;48.644;9.006;2024-02-23T06:33:24;4.87;;;2.20;;
21905;SDS011;11117;48.644;9.006;2024-02-23T06:35:50;6.50;;;1.40;;
21905;SDS011;11117;48.644;9.006;2024-02-23T06:38:16;2.80;;;1.30;;
21905;SDS011;11117;48.644;9.006;2024-02-23T06:40:41;6.13;;;2.43;;
21905;SDS011;11117;48.644;9.006;2024-02-23T06:43:07;11.43;;;5.00;;
21905;SDS011;11117;48.644;9.006;2024-02-23T06:45:32;5.47;;;2.37;;
21905;SDS011;11117;48.644;9.006;2024-02-23T06:47:58;3.87;;;0.80;;
21905;SDS011;11117;48.644;9.006;2024-02-23T06:50:23;4.50;;;0.90;;
21905;SDS011;11117;48.644;9.006;2024-02-23T06:52:53;2.27;;;0.80;;
21905;SDS011;11117;48.644;9.006;2024-02-23T06:55:18;3.60;;;1.00;;
21905;SDS011;11117;48.644;9.006;2024-02-23T06:57:44;2.57;;;1.03;;
21905;SDS011;11117;48.644;9.006;2024-02-23T07:00:10;4.40;;;1.00;;
21905;SDS011;11117;48.644;9.006;2024-02-23T07:02:35;4.80;;;1.13;;
21905;SDS011;11117;48.644;9.006;2024-02-23T07:05:01;3.03;;;1.03;;
21905;SDS011;11117;48.644;9.006;2024-02-23T07:07:27;3.77;;;1.00;;
21905;SDS011;11117;48.644;9.006;2024-02-23T07:09:53;5.60;;;1.20;;
21905;SDS011;11117;48.644;9.006;2024-02-23T07:12:18;3.90;;;1.00;;
21905;SDS011;11117;48.644;9.006;2024-02-23T07:14:44;2.93;;;0.80;;
21905;SDS011;11117;48.644;9.006;2024-02-23T07:17:09;3.40;;;0.80;;
21905;SDS011;11117;48.644;9.006;2024-02-23T07:19:35;5.73;;;1.00;;
21905;SDS011;11117;48.644;9.006;2024-02-23T07:22:00;3.60;;;0.80;;
21905;SDS011;11117;48.644;9.006;2024-02-23T07:24:26;4.53;;;1.13;;
21905;SDS011;11117;48.644;9.006;2024-02-23T07:26:51;4.33;;;0.80;;
21905;SDS011;11117;48.644;9.006;2024-02-23T07:29:17;3.23;;;0.80;;
21905;SDS011;11117;48.644;9.006;2024-02-23T07:31:42;6.07;;;1.10;;
21905;SDS011;11117;48.644;9.006;2024-02-23T07:34:08;4.83;;;0.87;;
21905;SDS011;11117;48.644;9.006;2024-02-23T07:36:33;2.33;;;0.83;;
21905;SDS011;11117;48.644;9.006;2024-02-23T07:38:59;3.90;;;0.83;;
21905;SDS011;11117;48.644;9.006;2024-02-23T07:41:25;4.30;;;0.80;;
21905;SDS011;11117;48.644;9.006;2024-02-23T07:43:50;5.57;;;0.97;;
21905;SDS011;11117;48.644;9.006;2024-02-23T07:46:16;4.80;;;1.00;;
21905;SDS011;11117;48.644;9.006;2024-02-23T07:48:41;3.13;;;0.80;;
21905;SDS011;11117;48.644;9.006;2024-02-23T07:51:07;2.83;;;1.20;;
21905;SDS011;11117;48.644;9.006;2024-02-23T07:53:32;8.33;;;0.97;;
21905;SDS011;11117;48.644;9.006;2024-02-23T07:55:59;4.43;;;0.90;;
21905;SDS011;11117;48.644;9.006;2024-02-23T07:58:25;3.43;;;0.87;;
21905;SDS011;11117;48.644;9.006;2024-02-23T08:00:51;4.37;;;1.20;;
21905;SDS011;11117;48.644;9.006;2024-02-23T08:03:16;3.27;;;0.97;;
21905;SDS011;11117;48.644;9.006;2024-02-23T08:05:42;7.07;;;1.37;;
21905;SDS011;11117;48.644;9.006;2024-02-23T08:08:07;7.03;;;1.33;;
21905;SDS011;11117;48.644;9.006;2024-02-23T08:10:33;5.00;;;1.80;;
21905;SDS011;11117;48.644;9.006;2024-02-23T08:12:58;9.30;;;1.70;;
21905;SDS011;11117;48.644;9.006;2024-02-23T08:15:24;6.93;;;1.90;;
21905;SDS011;11117;48.644;9.006;2024-02-23T08:17:52;8.07;;;2.77;;
21905;SDS011;11117;48.644;9.006;2024-02-23T08:20:18;4.53;;;0.97;;
21905;SDS011;11117;48.644;9.006;2024-02-23T08:22:43;7.93;;;1.03;;
21905;SDS011;11117;48.644;9.006;2024-02-23T08:25:09;10.80;;;1.30;;
21905;SDS011;11117;48.644;9.006;2024-02-23T08:27:34;7.10;;;1.40;;
21905;SDS011;11117;48.644;9.006;2024-02-23T08:30:00;4.87;;;1.17;;
21905;SDS011;11117;48.644;9.006;2024-02-23T08:32:25;4.23;;;1.10;;
21905;SDS011;11117;48.644;9.006;2024-02-23T08:34:51;3.60;;;1.13;;
21905;SDS011;11117;48.644;9.006;2024-02-23T08:37:17;4.63;;;1.00;;
21905;SDS011;11117;48.644;9.006;2024-02-23T08:39:42;3.30;;;0.90;;
21905;SDS011;11117;48.644;9.006;2024-02-23T08:42:08;7.83;;;1.10;;
21905;SDS011;11117;48.644;9.006;2024-02-23T08:44:33;6.33;;;1.13;;
21905;SDS011;11117;48.644;9.006;2024-02-23T08:46:59;5.67;;;0.80;;
21905;SDS011;11117;48.644;9.006;2024-02-23T08:49:24;4.77;;;1.00;;
21905;SDS011;11117;48.644;9.006;2024-02-23T08:51:50;6.73;;;1.27;;
21905;SDS011;11117;48.644;9.006;2024-02-23T08:54:15;6.70;;;1.03;;
21905;SDS011;11117;48.644;9.006;2024-02-23T08:56:41;6.07;;;1.20;;
21905;SDS011;11117;48.644;9.006;2024-02-23T08:59:06;4.63;;;0.73;;
21905;SDS011;11117;48.644;9.006;2024-02-23T09:01:32;4.43;;;1.00;;
21905;SDS011;11117;48.644;9.006;2024-02-23T09:03:57;5.63;;;1.00;;
21905;SDS011;11117;48.644;9.006;2024-02-23T09:06:23;5.97;;;1.17;;
21905;SDS011;11117;48.644;9.006;2024-02-23T09:08:48;4.30;;;0.60;;
21905;SDS011;11117;48.644;9.006;2024-02-23T09:11:14;5.53;;;1.07;;
21905;SDS011;11117;48.644;9.006;2024-02-23T09:13:40;8.40;;;0.90;;
21905;SDS011;11117;48.644;9.006;2024-02-23T09:16:05;4.90;;;0.97;;
21905;SDS011;11117;48.644;9.006;2024-02-23T09:18:31;4.90;;;1.03;;
21905;SDS011;11117;48.644;9.006;2024-02-23T09:20:57;6.33;;;1.03;;
21905;SDS011;11117;48.644;9.006;2024-02-23T09:23:24;5.33;;;1.00;;
21905;SDS011;11117;48.644;9.006;2024-02-23T09:25:49;5.53;;;1.37;;
21905;SDS011;11117;48.644;9.006;2024-02-23T09:28:15;5.17;;;1.20;;
21905;SDS011;11117;48.644;9.006;2024-02-23T09:30:40;4.23;;;1.07;;
21905;SDS011;11117;48.644;9.006;2024-02-23T09:33:06;4.77;;;1.00;;
21905;SDS011;11117;48.644;9.006;2024-02-23T09:35:32;3.63;;;1.10;;
21905;SDS011;11117;48.644;9.006;2024-02-23T09:37:57;2.63;;;0.90;;
21905;SDS011;11117;48.644;9.006;2024-02-23T09:40:23;4.37;;;0.87;;
21905;SDS011;11117;48.644;9.006;2024-02-23T09:42:55;4.10;;;0.93;;
21905;SDS011;11117;48.644;9.006;2024-02-23T09:45:21;5.63;;;1.10;;
21905;SDS011;11117;48.644;9.006;2024-02-23T09:47:53;3.27;;;1.00;;
21905;SDS011;11117;48.644;9.006;2024-02-23T09:50:19;6.83;;;1.37;;
21905;SDS011;11117;48.644;9.006;2024-02-23T09:52:52;6.83;;;1.00;;
21905;SDS011;11117;48.644;9.006;2024-02-23T09:55:18;5.27;;;0.90;;
21905;SDS011;11117;48.644;9.006;2024-02-23T09:57:47;4.43;;;0.93;;
21905;SDS011;11117;48.644;9.006;2024-02-23T10:00:15;4.50;;;0.90;;
21905;SDS011;11117;48.644;9.006;2024-02-23T10:02:42;4.90;;;1.03;;
21905;SDS011;11117;48.644;9.006;2024-02-23T10:05:08;5.93;;;1.20;;
21905;SDS011;11117;48.644;9.006;2024-02-23T10:07:35;8.97;;;1.00;;
21905;SDS011;11117;48.644;9.006;2024-02-23T10:10:01;4.73;;;1.20;;
21905;SDS011;11117;48.644;9.006;2024-02-23T10:12:26;4.67;;;0.90;;
21905;SDS011;11117;48.644;9.006;2024-02-23T10:14:52;3.33;;;0.87;;
21905;SDS011;11117;48.644;9.006;2024-02-23T10:17:18;5.27;;;0.70;;
21905;SDS011;11117;48.644;9.006;2024-02-23T10:19:45;3.27;;;0.90;;
21905;SDS011;11117;48.644;9.006;2024-02-23T10:22:10;3.53;;;0.60;;
21905;SDS011;11117;48.644;9.006;2024-02-23T10:24:36;4.00;;;1.00;;
21905;SDS011;11117;48.644;9.006;2024-02-23T10:27:02;2.73;;;0.90;;
21905;SDS011;11117;48.644;9.006;2024-02-23T10:29:27;8.20;;;1.13;;
21905;SDS011;11117;48.644;9.006;2024-02-23T10:31:53;6.83;;;1.10;;
21905;SDS011;11117;48.644;9.006;2024-02-23T10:34:22;4.53;;;1.33;;
21905;SDS011;11117;48.644;9.006;2024-02-23T10:36:49;5.47;;;0.90;;
21905;SDS011;11117;48.644;9.006;2024-02-23T10:39:15;2.40;;;0.80;;
21905;SDS011;11117;48.644;9.006;2024-02-23T10:41:43;6.03;;;1.37;;
21905;SDS011;11117;48.644;9.006;2024-02-23T10:44:12;6.87;;;1.40;;
21905;SDS011;11117;48.644;9.006;2024-02-23T10:46:40;4.23;;;0.97;;
21905;SDS011;11117;48.644;9.006;2024-02-23T10:49:06;7.93;;;1.13;;
21905;SDS011;11117;48.644;9.006;2024-02-23T10:51:32;5.57;;;1.00;;
21905;SDS011;11117;48.644;9.006;2024-02-23T10:53:59;3.63;;;0.80;;
21905;SDS011;11117;48.644;9.006;2024-02-23T10:56:25;5.70;;;1.13;;
21905;SDS011;11117;48.644;9.006;2024-02-23T10:58:50;3.23;;;1.03;;
21905;SDS011;11117;48.644;9.006;2024-02-23T11:01:16;7.53;;;1.13;;
21905;SDS011;11117;48.644;9.006;2024-02-23T11:03:44;4.80;;;1.30;;
21905;SDS011;11117;48.644;9.006;2024-02-23T11:06:10;7.43;;;1.00;;
21905;SDS011;11117;48.644;9.006;2024-02-23T11:08:36;7.30;;;0.80;;
21905;SDS011;11117;48.644;9.006;2024-02-23T11:11:08;6.37;;;1.00;;
21905;SDS011;11117;48.644;9.006;2024-02-23T11:13:34;5.97;;;1.23;;
21905;SDS011;11117;48.644;9.006;2024-02-23T11:16:04;5.63;;;0.93;;
21905;SDS011;11117;48.644;9.006;2024-02-23T11:18:31;4.63;;;1.03;;
21905;SDS011;11117;48.644;9.006;2024-02-23T11:20:59;4.77;;;0.80;;
21905;SDS011;11117;48.644;9.006;2024-02-23T11:23:25;9.37;;;1.20;;
21905;SDS011;11117;48.644;9.006;2024-02-23T11:28:28;5.10;;;0.97;;
21905;SDS011;11117;48.644;9.006;2024-02-23T11:30:54;6.03;;;1.10;;
21905;SDS011;11117;48.644;9.006;2024-02-23T11:33:26;4.73;;;1.00;;
21905;SDS011;11117;48.644;9.006;2024-02-23T11:35:52;8.60;;;1.03;;
21905;SDS011;11117;48.644;9.006;2024-02-23T11:38:18;8.00;;;0.80;;
21905;SDS011;11117;48.644;9.006;2024-02-23T11:40:46;7.70;;;1.20;;
21905;SDS011;11117;48.644;9.006;2024-02-23T11:43:13;12.77;;;1.40;;
21905;SDS011;11117;48.644;9.006;2024-02-23T11:45:40;13.43;;;2.97;;
21905;SDS011;11117;48.644;9.006;2024-02-23T11:48:06;8.77;;;1.20;;
21905;SDS011;11117;48.644;9.006;2024-02-23T11:50:32;6.37;;;1.77;;
21905;SDS011;11117;48.644;9.006;2024-02-23T11:52:57;9.30;;;1.40;;
21905;SDS011;11117;48.644;9.006;2024-02-23T11:55:24;10.50;;;1.63;;
21905;SDS011;11117;48.644;9.006;2024-02-23T11:57:52;9.37;;;1.50;;
21905;SDS011;11117;48.644;9.006;2024-02-23T12:00:18;7.40;;;1.40;;
21905;SDS011;11117;48.644;9.006;2024-02-23T12:02:44;8.83;;;1.30;;
21905;SDS011;11117;48.644;9.006;2024-02-23T12:05:09;6.83;;;1.20;;
21905;SDS011;11117;48.644;9.006;2024-02-23T12:07:35;7.53;;;1.20;;
21905;SDS011;11117;48.644;9.006;2024-02-23T12:10:00;8.77;;;1.63;;
21905;SDS011;11117;48.644;9.006;2024-02-23T12:12:26;6.27;;;1.20;;
21905;SDS011;11117;48.644;9.006;2024-02-23T12:14:52;11.97;;;3.53;;
21905;SDS011;11117;48.644;9.006;2024-02-23T12:17:18;11.60;;;1.80;;
21905;SDS011;11117;48.644;9.006;2024-02-23T12:19:43;8.27;;;1.37;;
21905;SDS011;11117;48.644;9.006;2024-02-23T12:22:12;8.53;;;1.10;;
21905;SDS011;11117;48.644;9.006;2024-02-23T12:24:38;7.73;;;1.70;;
21905;SDS011;11117;48.644;9.006;2024-02-23T12:27:06;12.03;;;3.23;;
21905;SDS011;11117;48.644;9.006;2024-02-23T12:29:32;13.80;;;3.20;;
21905;SDS011;11117;48.644;9.006;2024-02-23T12:32:04;10.90;;;3.50;;
21905;SDS011;11117;48.644;9.006;2024-02-23T12:34:30;5.37;;;1.47;;
21905;SDS011;11117;48.644;9.006;2024-02-23T12:36:56;7.70;;;0.93;;
21905;SDS011;11117;48.644;9.006;2024-02-23T12:39:21;8.67;;;1.10;;
21905;SDS011;11117;48.644;9.006;2024-02-23T12:41:47;6.27;;;1.30;;
21905;SDS011;11117;48.644;9.006;2024-02-23T12:44:12;5.87;;;1.30;;
21905;SDS011;11117;48.644;9.006;2024-02-23T12:46:38;9.57;;;1.47;;
21905;SDS011;11117;48.644;9.006;2024-02-23T12:49:04;4.57;;;1.20;;
21905;SDS011;11117;48.644;9.006;2024-02-23T12:51:29;6.37;;;1.13;;
21905;SDS011;11117;48.644;9.006;2024-02-23T12:53:55;7.63;;;1.20;;
21905;SDS011;11117;48.644;9.006;2024-02-23T12:56:20;9.80;;;1.70;;
21905;SDS011;11117;48.644;9.006;2024-02-23T12:58:46;7.40;;;1.70;;
21905;SDS011;11117;48.644;9.006;2024-02-23T13:01:12;7.97;;;1.53;;
21905;SDS011;11117;48.644;9.006;2024-02-23T13:03:38;6.17;;;1.50;;
21905;SDS011;11117;48.644;9.006;2024-02-23T13:06:04;9.87;;;1.60;;
21905;SDS011;11117;48.644;9.006;2024-02-23T13:08:30;8.50;;;2.03;;
21905;SDS011;11117;48.644;9.006;2024-02-23T13:10:56;5.37;;;1.70;;
21905;SDS011;11117;48.644;9.006;2024-02-23T13:13:22;6.10;;;2.10;;
21905;SDS011;11117;48.644;9.006;2024-02-23T13:15:49;5.80;;;1.80;;
21905;SDS011;11117;48.644;9.006;2024-02-23T13:18:16;6.57;;;1.50;;
21905;SDS011;11117;48.644;9.006;2024-02-23T13:20:41;5.03;;;1.83;;
21905;SDS011;11117;48.644;9.006;2024-02-23T13:23:07;9.23;;;1.70;;
21905;SDS011;11117;48.644;9.006;2024-02-23T13:25:34;10.77;;;2.70;;
21905;SDS011;11117;48.644;9.006;2024-02-23T13:28:01;11.43;;;2.83;;
21905;SDS011;11117;48.644;9.006;2024-02-23T13:30:26;17.27;;;3.00;;
21905;SDS011;11117;48.644;9.006;2024-02-23T13:32:54;13.43;;;3.83;;
21905;SDS011;11117;48.644;9.006;2024-02-23T13:35:20;13.47;;;3.97;;
21905;SDS011;11117;48.644;9.006;2024-02-23T13:37:45;6.23;;;1.80;;
21905;SDS011;11117;48.644;9.006;2024-02-23T13:40:11;10.83;;;2.37;;
21905;SDS011;11117;48.644;9.006;2024-02-23T13:42:40;5.30;;;1.20;;
21905;SDS011;11117;48.644;9.006;2024-02-23T13:45:06;10.80;;;1.80;;
21905;SDS011;11117;48.644;9.006;2024-02-23T13:47:32;9.07;;;1.50;;
21905;SDS011;11117;48.644;9.006;2024-02-23T13:49:58;9.60;;;1.30;;
21905;SDS011;11117;48.644;9.006;2024-02-23T13:52:24;6.43;;;1.47;;
21905;SDS011;11117;48.644;9.006;2024-02-23T13:54:50;10.87;;;1.90;;
21905;SDS011;11117;48.644;9.006;2024-02-23T13:57:15;7.30;;;1.80;;
21905;SDS011;11117;48.644;9.006;2024-02-23T13:59:41;4.33;;;1.77;;
21905;SDS011;11117;48.644;9.006;2024-02-23T14:02:07;8.40;;;1.53;;
21905;SDS011;11117;48.644;9.006;2024-02-23T14:04:32;6.77;;;1.30;;
21905;SDS011;11117;48.644;9.006;2024-02-23T14:06:58;6.37;;;1.50;;
21905;SDS011;11117;48.644;9.006;2024-02-23T14:09:23;9.13;;;2.37;;
21905;SDS011;11117;48.644;9.006;2024-02-23T14:11:49;7.23;;;1.83;;
21905;SDS011;11117;48.644;9.006;2024-02-23T14:14:15;3.10;;;1.37;;
21905;SDS011;11117;48.644;9.006;2024-02-23T14:16:41;9.07;;;1.90;;
21905;SDS011;11117;48.644;9.006;2024-02-23T14:19:06;11.83;;;1.83;;
21905;SDS011;11117;48.644;9.006;2024-02-23T14:21:32;10.43;;;1.97;;
21905;SDS011;11117;48.644;9.006;2024-02-23T14:23:57;7.40;;;1.70;;
21905;SDS011;11117;48.644;9.006;2024-02-23T14:26:23;5.83;;;1.20;;
21905;SDS011;11117;48.644;9.006;2024-02-23T14:28:48;7.93;;;1.40;;
21905;SDS011;11117;48.644;9.006;2024-02-23T14:31:14;3.40;;;1.00;;
21905;SDS011;11117;48.644;9.006;2024-02-23T14:33:40;6.03;;;1.30;;
21905;SDS011;11117;48.644;9.006;2024-02-23T14:36:05;5.07;;;1.30;;
21905;SDS011;11117;48.644;9.006;2024-02-23T14:38:31;11.33;;;2.73;;
21905;SDS011;11117;48.644;9.006;2024-02-23T14:40:57;6.50;;;1.53;;
21905;SDS011;11117;48.644;9.006;2024-02-23T14:43:22;7.50;;;1.40;;